Terminal Aerodrome Forecast
Issued by NWS

Home | Current Version | Previous Version | Text Only | Print | Product List | Glossary On
Versions: 1 2 3 4 5 6 7 8 9 10 11 12 13 14 15 16 17 18
000
FTUS46 KMTR 260528
TAFSJC
TAF
KSJC 260528Z 2606/2706 30009KT P6SM FEW015 SCT025
     FM260700 31005KT P6SM FEW015 SCT035
     FM261200 VRB03KT P6SM FEW010 SCT025 BKN050
     FM261800 29009KT P6SM VCSH FEW010 BKN035
     FM262200 30012KT P6SM FEW015 SCT035 BKN050
     FM270300 30011KT P6SM FEW015 SCT030=

USA.gov is the U.S. government's official web portal to all federal, state and local government web resources and services.